sensor_id;sensor_type;location;lat;lon;timestamp;pressure;altitude;pressure_sealevel;temperature;humidity
62800;BME280;48842;51.046;13.796;2022-10-24T00:00:13;100012.75;;;17.06;69.01
62800;BME280;48842;51.046;13.796;2022-10-24T00:02:39;100012.88;;;17.01;69.11
62800;BME280;48842;51.046;13.796;2022-10-24T00:05:04;100012.97;;;16.98;69.27
62800;BME280;48842;51.046;13.796;2022-10-24T00:07:29;100018.25;;;16.97;69.22
62800;BME280;48842;51.046;13.796;2022-10-24T00:09:55;100015.72;;;16.93;69.30
62800;BME280;48842;51.046;13.796;2022-10-24T00:12:20;100013.06;;;16.93;69.26
62800;BME280;48842;51.046;13.796;2022-10-24T00:14:45;100020.16;;;16.93;69.19
62800;BME280;48842;51.046;13.796;2022-10-24T00:17:10;100019.28;;;16.92;69.13
62800;BME280;48842;51.046;13.796;2022-10-24T00:19:36;100028.97;;;16.92;69.12
62800;BME280;48842;51.046;13.796;2022-10-24T00:22:01;100025.53;;;16.90;69.18
62800;BME280;48842;51.046;13.796;2022-10-24T00:24:27;100026.47;;;16.87;69.37
62800;BME280;48842;51.046;13.796;2022-10-24T00:26:52;100037.91;;;16.86;69.38
62800;BME280;48842;51.046;13.796;2022-10-24T00:29:17;100041.50;;;16.85;69.17
62800;BME280;48842;51.046;13.796;2022-10-24T00:31:43;100047.69;;;16.84;69.45
62800;BME280;48842;51.046;13.796;2022-10-24T00:34:08;100036.28;;;16.82;69.36
62800;BME280;48842;51.046;13.796;2022-10-24T00:36:34;100030.16;;;16.80;69.41
62800;BME280;48842;51.046;13.796;2022-10-24T00:38:59;100031.91;;;16.81;69.41
62800;BME280;48842;51.046;13.796;2022-10-24T00:41:35;100031.91;;;16.81;69.37
62800;BME280;48842;51.046;13.796;2022-10-24T00:44:24;100027.50;;;16.80;69.41
62800;BME280;48842;51.046;13.796;2022-10-24T00:46:57;100027.47;;;16.82;69.16
62800;BME280;48842;51.046;13.796;2022-10-24T00:49:28;100029.22;;;16.83;69.28
62800;BME280;48842;51.046;13.796;2022-10-24T00:51:59;100023.00;;;16.84;69.08
62800;BME280;48842;51.046;13.796;2022-10-24T00:54:26;100016.84;;;16.83;69.23
62800;BME280;48842;51.046;13.796;2022-10-24T00:56:59;100023.91;;;16.83;69.11
62800;BME280;48842;51.046;13.796;2022-10-24T00:59:26;100014.19;;;16.83;69.25
62800;BME280;48842;51.046;13.796;2022-10-24T01:01:52;100029.22;;;16.83;69.28
62800;BME280;48842;51.046;13.796;2022-10-24T01:04:17;100038.00;;;16.83;69.10
62800;BME280;48842;51.046;13.796;2022-10-24T01:09:38;100031.84;;;16.83;69.16
62800;BME280;48842;51.046;13.796;2022-10-24T01:12:18;100031.84;;;16.83;69.12
62800;BME280;48842;51.046;13.796;2022-10-24T01:17:42;100005.34;;;16.84;69.17
62800;BME280;48842;51.046;13.796;2022-10-24T01:20:38;100019.44;;;16.85;69.09
62800;BME280;48842;51.046;13.796;2022-10-24T01:23:22;100010.66;;;16.84;69.04
62800;BME280;48842;51.046;13.796;2022-10-24T01:28:56;100031.81;;;16.84;69.09
62800;BME280;48842;51.046;13.796;2022-10-24T01:31:33;100031.78;;;16.86;68.84
62800;BME280;48842;51.046;13.796;2022-10-24T01:34:09;100024.69;;;16.86;68.75
62800;BME280;48842;51.046;13.796;2022-10-24T01:36:49;100024.69;;;16.86;68.58
62800;BME280;48842;51.046;13.796;2022-10-24T01:39:17;100022.91;;;16.88;68.61
62800;BME280;48842;51.046;13.796;2022-10-24T01:41:46;100001.75;;;16.88;68.62
62800;BME280;48842;51.046;13.796;2022-10-24T01:44:19;100012.34;;;16.88;68.58
62800;BME280;48842;51.046;13.796;2022-10-24T01:46:54;100007.91;;;16.89;68.30
62800;BME280;48842;51.046;13.796;2022-10-24T01:49:22;99995.56;;;16.89;68.24
62800;BME280;48842;51.046;13.796;2022-10-24T01:51:53;99997.31;;;16.89;68.29
62800;BME280;48842;51.046;13.796;2022-10-24T01:54:21;100001.75;;;16.88;68.10
62800;BME280;48842;51.046;13.796;2022-10-24T01:56:47;99992.03;;;16.89;68.10
62800;BME280;48842;51.046;13.796;2022-10-24T02:01:50;99994.66;;;16.89;68.03
62800;BME280;48842;51.046;13.796;2022-10-24T02:04:17;99994.66;;;16.89;67.96
62800;BME280;48842;51.046;13.796;2022-10-24T02:06:44;99992.91;;;16.89;67.91
62800;BME280;48842;51.046;13.796;2022-10-24T02:09:15;99989.44;;;16.87;67.83
62800;BME280;48842;51.046;13.796;2022-10-24T02:11:42;99987.66;;;16.86;67.91
62800;BME280;48842;51.046;13.796;2022-10-24T02:16:38;99965.63;;;16.86;67.92
62800;BME280;48842;51.046;13.796;2022-10-24T02:19:04;99985.94;;;16.85;67.81
62800;BME280;48842;51.046;13.796;2022-10-24T02:21:42;99984.19;;;16.84;67.80
62800;BME280;48842;51.046;13.796;2022-10-24T02:24:14;99990.34;;;16.85;67.79
62800;BME280;48842;51.046;13.796;2022-10-24T02:26:54;99986.78;;;16.86;67.53
62800;BME280;48842;51.046;13.796;2022-10-24T02:29:25;99972.66;;;16.87;67.55
62800;BME280;48842;51.046;13.796;2022-10-24T02:31:53;99971.78;;;16.86;67.63
62800;BME280;48842;51.046;13.796;2022-10-24T02:34:21;99962.97;;;16.87;67.62
62800;BME280;48842;51.046;13.796;2022-10-24T02:36:49;99957.69;;;16.86;67.50
62800;BME280;48842;51.046;13.796;2022-10-24T02:39:16;99958.63;;;16.83;67.71
62800;BME280;48842;51.046;13.796;2022-10-24T02:41:43;99941.91;;;16.83;67.54
62800;BME280;48842;51.046;13.796;2022-10-24T02:44:12;99939.25;;;16.83;67.57
62800;BME280;48842;51.046;13.796;2022-10-24T02:46:39;99955.19;;;16.81;67.60
62800;BME280;48842;51.046;13.796;2022-10-24T02:49:06;99950.78;;;16.80;67.70
62800;BME280;48842;51.046;13.796;2022-10-24T02:51:34;99955.13;;;16.83;67.71
62800;BME280;48842;51.046;13.796;2022-10-24T02:54:02;99951.63;;;16.82;67.53
62800;BME280;48842;51.046;13.796;2022-10-24T02:56:28;99959.53;;;16.84;67.70
62800;BME280;48842;51.046;13.796;2022-10-24T02:58:53;99950.69;;;16.83;67.61
62800;BME280;48842;51.046;13.796;2022-10-24T03:01:19;99952.50;;;16.83;67.57
62800;BME280;48842;51.046;13.796;2022-10-24T03:03:44;99951.69;;;16.81;67.70
62800;BME280;48842;51.046;13.796;2022-10-24T03:06:10;99958.69;;;16.82;67.71
62800;BME280;48842;51.046;13.796;2022-10-24T03:08:35;99963.97;;;16.82;67.53
62800;BME280;48842;51.046;13.796;2022-10-24T03:11:01;99963.06;;;16.83;67.57
62800;BME280;48842;51.046;13.796;2022-10-24T03:13:27;99965.72;;;16.83;67.58
62800;BME280;48842;51.046;13.796;2022-10-24T03:15:52;99971.88;;;16.83;67.54
62800;BME280;48842;51.046;13.796;2022-10-24T03:18:17;99981.59;;;16.83;67.59
62800;BME280;48842;51.046;13.796;2022-10-24T03:20:42;99981.53;;;16.84;67.57
62800;BME280;48842;51.046;13.796;2022-10-24T03:23:08;99985.06;;;16.85;67.49
62800;BME280;48842;51.046;13.796;2022-10-24T03:25:33;99986.84;;;16.84;67.45
62800;BME280;48842;51.046;13.796;2022-10-24T03:27:58;99985.09;;;16.83;67.58
62800;BME280;48842;51.046;13.796;2022-10-24T03:30:24;99988.63;;;16.84;67.56
62800;BME280;48842;51.046;13.796;2022-10-24T03:32:49;99984.28;;;16.81;67.22
62800;BME280;48842;51.046;13.796;2022-10-24T03:35:14;99972.84;;;16.81;67.25
62800;BME280;48842;51.046;13.796;2022-10-24T03:37:40;99984.28;;;16.81;67.36
62800;BME280;48842;51.046;13.796;2022-10-24T03:40:06;99978.16;;;16.79;67.21
62800;BME280;48842;51.046;13.796;2022-10-24T03:42:32;99977.34;;;16.77;67.33
62800;BME280;48842;51.046;13.796;2022-10-24T03:44:57;99981.81;;;16.75;67.28
62800;BME280;48842;51.046;13.796;2022-10-24T03:47:22;99991.53;;;16.73;67.31
62800;BME280;48842;51.046;13.796;2022-10-24T03:49:48;99989.84;;;16.70;67.30
62800;BME280;48842;51.046;13.796;2022-10-24T03:52:13;99989.88;;;16.69;67.22
62800;BME280;48842;51.046;13.796;2022-10-24T03:54:38;99992.63;;;16.66;67.24
62800;BME280;48842;51.046;13.796;2022-10-24T03:57:03;99988.25;;;16.65;67.14
62800;BME280;48842;51.046;13.796;2022-10-24T03:59:29;99994.44;;;16.64;67.21
62800;BME280;48842;51.046;13.796;2022-10-24T04:01:54;99986.56;;;16.62;67.20
62800;BME280;48842;51.046;13.796;2022-10-24T04:04:19;99997.19;;;16.61;67.04
62800;BME280;48842;51.046;13.796;2022-10-24T04:06:45;99990.16;;;16.60;67.15
62800;BME280;48842;51.046;13.796;2022-10-24T04:09:10;99991.03;;;16.58;66.97
62800;BME280;48842;51.046;13.796;2022-10-24T04:11:36;99996.38;;;16.57;67.04
62800;BME280;48842;51.046;13.796;2022-10-24T04:14:02;99994.66;;;16.56;67.00
62800;BME280;48842;51.046;13.796;2022-10-24T04:16:27;99993.00;;;16.52;67.17
62800;BME280;48842;51.046;13.796;2022-10-24T04:18:52;99989.47;;;16.51;67.04
62800;BME280;48842;51.046;13.796;2022-10-24T04:21:18;99985.13;;;16.50;67.08
62800;BME280;48842;51.046;13.796;2022-10-24T04:23:43;99987.78;;;16.49;67.14
62800;BME280;48842;51.046;13.796;2022-10-24T04:26:16;99991.34;;;16.48;66.88
62800;BME280;48842;51.046;13.796;2022-10-24T04:28:42;99991.38;;;16.46;66.76
62800;BME280;48842;51.046;13.796;2022-10-24T04:31:08;100004.59;;;16.46;66.93
62800;BME280;48842;51.046;13.796;2022-10-24T04:33:33;100010.75;;;16.47;66.94
62800;BME280;48842;51.046;13.796;2022-10-24T04:36:00;100014.31;;;16.46;66.92
62800;BME280;48842;51.046;13.796;2022-10-24T04:38:26;100005.53;;;16.44;67.00
62800;BME280;48842;51.046;13.796;2022-10-24T04:40:52;100004.69;;;16.43;67.13
62800;BME280;48842;51.046;13.796;2022-10-24T04:43:19;100008.25;;;16.40;67.07
62800;BME280;48842;51.046;13.796;2022-10-24T04:45:46;99998.63;;;16.38;67.29
62800;BME280;48842;51.046;13.796;2022-10-24T04:48:12;99993.38;;;16.36;67.29
62800;BME280;48842;51.046;13.796;2022-10-24T04:50:39;99996.97;;;16.34;67.41
62800;BME280;48842;51.046;13.796;2022-10-24T04:53:05;99996.16;;;16.32;67.47
62800;BME280;48842;51.046;13.796;2022-10-24T04:55:30;99997.06;;;16.31;67.32
62800;BME280;48842;51.046;13.796;2022-10-24T04:57:55;99995.38;;;16.28;67.41
62800;BME280;48842;51.046;13.796;2022-10-24T05:00:21;99996.28;;;16.27;67.41
62800;BME280;48842;51.046;13.796;2022-10-24T05:02:46;99998.06;;;16.25;67.51
62800;BME280;48842;51.046;13.796;2022-10-24T05:05:11;99996.34;;;16.24;67.63
62800;BME280;48842;51.046;13.796;2022-10-24T05:07:37;100004.28;;;16.24;67.81
62800;BME280;48842;51.046;13.796;2022-10-24T05:10:03;99993.78;;;16.21;67.73
62800;BME280;48842;51.046;13.796;2022-10-24T05:12:29;100002.66;;;16.18;68.05
62800;BME280;48842;51.046;13.796;2022-10-24T05:14:54;99988.59;;;16.16;67.83
62800;BME280;48842;51.046;13.796;2022-10-24T05:17:19;100005.41;;;16.14;67.94
62800;BME280;48842;51.046;13.796;2022-10-24T05:19:45;100005.47;;;16.12;67.91
62800;BME280;48842;51.046;13.796;2022-10-24T05:22:10;99997.59;;;16.09;68.17
62800;BME280;48842;51.046;13.796;2022-10-24T05:24:35;100002.03;;;16.07;68.17
62800;BME280;48842;51.046;13.796;2022-10-24T05:27:00;100007.31;;;16.07;68.23
62800;BME280;48842;51.046;13.796;2022-10-24T05:29:26;100011.78;;;16.05;68.44
62800;BME280;48842;51.046;13.796;2022-10-24T05:31:51;100012.69;;;16.04;68.30
62800;BME280;48842;51.046;13.796;2022-10-24T05:34:16;100009.16;;;16.05;68.45
62800;BME280;48842;51.046;13.796;2022-10-24T05:36:41;100001.22;;;16.05;68.61
62800;BME280;48842;51.046;13.796;2022-10-24T05:39:07;99994.13;;;16.07;68.55
62800;BME280;48842;51.046;13.796;2022-10-24T05:41:32;99989.72;;;16.06;68.67
62800;BME280;48842;51.046;13.796;2022-10-24T05:43:57;99983.59;;;16.05;68.77
62800;BME280;48842;51.046;13.796;2022-10-24T05:46:23;99974.81;;;16.05;68.69
62800;BME280;48842;51.046;13.796;2022-10-24T05:48:48;99989.75;;;16.04;68.85
62800;BME280;48842;51.046;13.796;2022-10-24T05:51:13;100003.88;;;16.05;68.94
62800;BME280;48842;51.046;13.796;2022-10-24T05:53:38;100010.00;;;16.05;69.06
62800;BME280;48842;51.046;13.796;2022-10-24T05:56:04;100020.56;;;16.05;68.94
62800;BME280;48842;51.046;13.796;2022-10-24T05:58:30;100020.53;;;16.07;68.92
62800;BME280;48842;51.046;13.796;2022-10-24T06:00:55;100013.47;;;16.08;69.04
62800;BME280;48842;51.046;13.796;2022-10-24T06:03:21;100013.47;;;16.08;68.86
62800;BME280;48842;51.046;13.796;2022-10-24T06:05:47;100014.34;;;16.08;68.94
62800;BME280;48842;51.046;13.796;2022-10-24T06:08:13;100016.13;;;16.08;69.11
62800;BME280;48842;51.046;13.796;2022-10-24T06:10:38;100017.00;;;16.08;68.90
62800;BME280;48842;51.046;13.796;2022-10-24T06:13:03;100012.53;;;16.10;69.08
62800;BME280;48842;51.046;13.796;2022-10-24T06:15:29;100016.97;;;16.10;69.01
62800;BME280;48842;51.046;13.796;2022-10-24T06:17:54;100010.78;;;16.11;69.14
62800;BME280;48842;51.046;13.796;2022-10-24T06:20:19;100016.94;;;16.11;69.19
62800;BME280;48842;51.046;13.796;2022-10-24T06:22:44;100022.16;;;16.13;69.11
62800;BME280;48842;51.046;13.796;2022-10-24T06:25:11;100015.94;;;16.15;69.36
62800;BME280;48842;51.046;13.796;2022-10-24T06:27:37;100019.41;;;16.17;69.23
62800;BME280;48842;51.046;13.796;2022-10-24T06:30:03;100007.91;;;16.20;69.34
62800;BME280;48842;51.046;13.796;2022-10-24T06:32:29;100009.66;;;16.21;69.46
62800;BME280;48842;51.046;13.796;2022-10-24T06:34:54;100018.34;;;16.25;69.30
62800;BME280;48842;51.046;13.796;2022-10-24T06:37:19;100020.06;;;16.27;69.44
62800;BME280;48842;51.046;13.796;2022-10-24T06:39:44;100004.13;;;16.30;69.62
62800;BME280;48842;51.046;13.796;2022-10-24T06:42:10;100016.38;;;16.34;69.44
62800;BME280;48842;51.046;13.796;2022-10-24T06:44:35;100020.66;;;16.38;69.34
62800;BME280;48842;51.046;13.796;2022-10-24T06:47:02;100025.84;;;16.43;69.53
62800;BME280;48842;51.046;13.796;2022-10-24T06:49:27;100022.22;;;16.47;69.32
62800;BME280;48842;51.046;13.796;2022-10-24T06:51:53;100018.59;;;16.50;69.29
62800;BME280;48842;51.046;13.796;2022-10-24T06:54:18;100024.66;;;16.55;69.19
62800;BME280;48842;51.046;13.796;2022-10-24T06:56:43;100026.28;;;16.61;69.21
62800;BME280;48842;51.046;13.796;2022-10-24T06:59:10;100039.38;;;16.65;69.04
62800;BME280;48842;51.046;13.796;2022-10-24T07:01:35;100034.81;;;16.70;68.85
62800;BME280;48842;51.046;13.796;2022-10-24T07:04:00;100040.03;;;16.73;68.99
62800;BME280;48842;51.046;13.796;2022-10-24T07:06:27;100046.06;;;16.79;68.91
62800;BME280;48842;51.046;13.796;2022-10-24T07:08:57;100041.59;;;16.82;68.83
62800;BME280;48842;51.046;13.796;2022-10-24T07:11:23;100044.09;;;16.88;68.68
62800;BME280;48842;51.046;13.796;2022-10-24T07:13:49;100044.84;;;16.92;68.80
62800;BME280;48842;51.046;13.796;2022-10-24T07:16:14;100037.69;;;16.97;68.68
62800;BME280;48842;51.046;13.796;2022-10-24T07:18:41;100047.22;;;17.03;68.62
62800;BME280;48842;51.046;13.796;2022-10-24T07:21:10;100042.72;;;17.06;68.39
62800;BME280;48842;51.046;13.796;2022-10-24T07:23:35;100039.03;;;17.12;68.36
62800;BME280;48842;51.046;13.796;2022-10-24T07:26:06;100041.59;;;17.15;68.39
62800;BME280;48842;51.046;13.796;2022-10-24T07:28:33;100032.66;;;17.19;68.27
62800;BME280;48842;51.046;13.796;2022-10-24T07:30:59;100040.44;;;17.24;68.19
62800;BME280;48842;51.046;13.796;2022-10-24T07:33:24;100024.47;;;17.27;68.01
62800;BME280;48842;51.046;13.796;2022-10-24T07:35:49;100034.13;;;17.30;68.07
62800;BME280;48842;51.046;13.796;2022-10-24T07:38:15;100034.06;;;17.31;67.94
62800;BME280;48842;51.046;13.796;2022-10-24T07:40:41;100024.28;;;17.33;67.81
62800;BME280;48842;51.046;13.796;2022-10-24T07:43:06;100032.22;;;17.35;67.93
62800;BME280;48842;51.046;13.796;2022-10-24T07:45:31;100033.03;;;17.37;67.91
62800;BME280;48842;51.046;13.796;2022-10-24T07:47:57;100039.13;;;17.39;67.66
62800;BME280;48842;51.046;13.796;2022-10-24T07:50:24;100047.91;;;17.41;67.66
62800;BME280;48842;51.046;13.796;2022-10-24T07:52:49;100040.78;;;17.43;67.50
62800;BME280;48842;51.046;13.796;2022-10-24T07:55:14;100043.34;;;17.46;67.71
62800;BME280;48842;51.046;13.796;2022-10-24T07:57:40;100043.25;;;17.49;67.55
62800;BME280;48842;51.046;13.796;2022-10-24T08:00:05;100037.84;;;17.54;67.49
62800;BME280;48842;51.046;13.796;2022-10-24T08:02:31;100034.16;;;17.58;67.65
62800;BME280;48842;51.046;13.796;2022-10-24T08:04:57;100027.88;;;17.62;67.39
62800;BME280;48842;51.046;13.796;2022-10-24T08:07:22;100035.66;;;17.67;67.53
62800;BME280;48842;51.046;13.796;2022-10-24T08:09:47;100032.94;;;17.70;67.38
62800;BME280;48842;51.046;13.796;2022-10-24T08:12:15;100023.13;;;17.73;67.39
62800;BME280;48842;51.046;13.796;2022-10-24T08:14:41;100031.81;;;17.78;67.29
62800;BME280;48842;51.046;13.796;2022-10-24T08:17:07;100027.25;;;17.82;67.14
62800;BME280;48842;51.046;13.796;2022-10-24T08:19:32;100029.72;;;17.88;67.08
62800;BME280;48842;51.046;13.796;2022-10-24T08:21:59;100028.75;;;17.92;66.98
62800;BME280;48842;51.046;13.796;2022-10-24T08:24:24;100031.25;;;17.97;66.80
62800;BME280;48842;51.046;13.796;2022-10-24T08:26:49;100022.28;;;18.01;66.79
62800;BME280;48842;51.046;13.796;2022-10-24T08:29:16;100028.38;;;18.05;66.66
62800;BME280;48842;51.046;13.796;2022-10-24T08:31:51;100030.03;;;18.07;66.62
62800;BME280;48842;51.046;13.796;2022-10-24T08:34:16;100031.66;;;18.11;66.47
62800;BME280;48842;51.046;13.796;2022-10-24T08:36:42;100036.88;;;18.14;66.41
62800;BME280;48842;51.046;13.796;2022-10-24T08:39:08;100037.66;;;18.18;66.50
62800;BME280;48842;51.046;13.796;2022-10-24T08:41:39;100041.91;;;18.22;66.33
62800;BME280;48842;51.046;13.796;2022-10-24T08:44:33;100033.00;;;18.25;66.17
62800;BME280;48842;51.046;13.796;2022-10-24T08:47:31;100039.13;;;18.27;66.03
62800;BME280;48842;51.046;13.796;2022-10-24T08:52:40;100026.56;;;18.32;65.97
62800;BME280;48842;51.046;13.796;2022-10-24T08:55:38;100020.31;;;18.35;65.92
62800;BME280;48842;51.046;13.796;2022-10-24T08:58:05;100023.72;;;18.38;65.96
62800;BME280;48842;51.046;13.796;2022-10-24T09:00:40;100026.25;;;18.43;65.96
62800;BME280;48842;51.046;13.796;2022-10-24T09:03:27;100025.25;;;18.45;65.93
62800;BME280;48842;51.046;13.796;2022-10-24T09:05:58;100023.38;;;18.49;65.86
62800;BME280;48842;51.046;13.796;2022-10-24T09:11:00;100018.66;;;18.57;65.74
62800;BME280;48842;51.046;13.796;2022-10-24T09:13:27;100018.50;;;18.62;65.80
62800;BME280;48842;51.046;13.796;2022-10-24T09:15:53;100016.59;;;18.65;65.77
62800;BME280;48842;51.046;13.796;2022-10-24T09:18:22;100022.69;;;18.69;65.82
62800;BME280;48842;51.046;13.796;2022-10-24T09:20:49;100020.78;;;18.73;65.63
62800;BME280;48842;51.046;13.796;2022-10-24T09:23:16;100014.50;;;18.75;65.67
62800;BME280;48842;51.046;13.796;2022-10-24T09:25:47;99999.44;;;18.76;65.60
62800;BME280;48842;51.046;13.796;2022-10-24T09:28:13;100005.53;;;18.79;65.58
62800;BME280;48842;51.046;13.796;2022-10-24T09:30:39;100005.41;;;18.82;65.46
62800;BME280;48842;51.046;13.796;2022-10-24T09:33:32;100003.63;;;18.83;65.63
62800;BME280;48842;51.046;13.796;2022-10-24T09:36:01;100015.91;;;18.86;65.58
62800;BME280;48842;51.046;13.796;2022-10-24T09:40:54;100016.69;;;18.89;65.44
62800;BME280;48842;51.046;13.796;2022-10-24T09:43:25;100012.28;;;18.90;65.42
62800;BME280;48842;51.046;13.796;2022-10-24T09:46:15;100000.66;;;18.92;65.22
62800;BME280;48842;51.046;13.796;2022-10-24T09:51:06;99996.06;;;18.97;65.14
62800;BME280;48842;51.046;13.796;2022-10-24T09:53:35;99996.84;;;18.99;65.21
62800;BME280;48842;51.046;13.796;2022-10-24T09:56:10;99989.72;;;19.01;65.12
62800;BME280;48842;51.046;13.796;2022-10-24T09:58:37;99999.31;;;19.06;65.11
62800;BME280;48842;51.046;13.796;2022-10-24T10:01:17;100000.09;;;19.08;65.15
62800;BME280;48842;51.046;13.796;2022-10-24T10:03:59;100000.84;;;19.11;65.04
62800;BME280;48842;51.046;13.796;2022-10-24T10:06:25;100011.31;;;19.16;65.06
62800;BME280;48842;51.046;13.796;2022-10-24T10:08:53;100018.19;;;19.22;64.93
62800;BME280;48842;51.046;13.796;2022-10-24T10:11:30;99999.44;;;19.26;64.82
62800;BME280;48842;51.046;13.796;2022-10-24T10:13:57;99997.44;;;19.31;64.87
62800;BME280;48842;51.046;13.796;2022-10-24T10:16:30;99990.19;;;19.36;64.67
62800;BME280;48842;51.046;13.796;2022-10-24T10:19:17;99995.38;;;19.40;64.67
62800;BME280;48842;51.046;13.796;2022-10-24T10:21:59;99995.25;;;19.43;64.48
62800;BME280;48842;51.046;13.796;2022-10-24T10:27:01;99986.13;;;19.50;64.25
62800;BME280;48842;51.046;13.796;2022-10-24T10:29:26;99989.56;;;19.52;64.10
62800;BME280;48842;51.046;13.796;2022-10-24T10:31:59;99983.28;;;19.54;64.18
62800;BME280;48842;51.046;13.796;2022-10-24T10:34:45;99974.41;;;19.56;64.06
62800;BME280;48842;51.046;13.796;2022-10-24T10:37:22;99969.94;;;19.56;64.07
62800;BME280;48842;51.046;13.796;2022-10-24T10:39:57;99972.53;;;19.58;63.83
62800;BME280;48842;51.046;13.796;2022-10-24T10:45:41;99983.09;;;19.59;63.77
62800;BME280;48842;51.046;13.796;2022-10-24T10:53:38;99976.88;;;19.60;64.03
62800;BME280;48842;51.046;13.796;2022-10-24T10:56:27;99977.72;;;19.61;63.80
62800;BME280;48842;51.046;13.796;2022-10-24T11:01:57;99975.00;;;19.62;63.75
62800;BME280;48842;51.046;13.796;2022-10-24T11:09:48;99947.50;;;19.63;63.61
62800;BME280;48842;51.046;13.796;2022-10-24T11:12:32;99944.06;;;19.61;63.53
62800;BME280;48842;51.046;13.796;2022-10-24T11:15:04;99940.31;;;19.65;63.51
62800;BME280;48842;51.046;13.796;2022-10-24T11:17:45;99941.28;;;19.64;63.15
62800;BME280;48842;51.046;13.796;2022-10-24T11:20:23;99932.41;;;19.64;62.99
62800;BME280;48842;51.046;13.796;2022-10-24T11:23:05;99942.06;;;19.66;62.81
62800;BME280;48842;51.046;13.796;2022-10-24T11:25:36;99930.59;;;19.66;62.79
62800;BME280;48842;51.046;13.796;2022-10-24T11:28:11;99939.41;;;19.66;62.75
62800;BME280;48842;51.046;13.796;2022-10-24T11:33:20;99944.72;;;19.66;62.18
62800;BME280;48842;51.046;13.796;2022-10-24T11:36:07;99944.72;;;19.66;61.78
62800;BME280;48842;51.046;13.796;2022-10-24T11:38:37;99947.38;;;19.66;61.61
62800;BME280;48842;51.046;13.796;2022-10-24T11:41:21;99945.72;;;19.64;61.04
62800;BME280;48842;51.046;13.796;2022-10-24T11:43:50;99949.19;;;19.66;61.06
62800;BME280;48842;51.046;13.796;2022-10-24T11:46:22;99933.25;;;19.66;61.05
62800;BME280;48842;51.046;13.796;2022-10-24T11:49:11;99923.59;;;19.63;60.91
62800;BME280;48842;51.046;13.796;2022-10-24T11:51:46;99930.78;;;19.61;61.02
62800;BME280;48842;51.046;13.796;2022-10-24T11:54:28;99933.50;;;19.60;61.16
62800;BME280;48842;51.046;13.796;2022-10-24T11:57:02;99935.41;;;19.56;60.77
62800;BME280;48842;51.046;13.796;2022-10-24T11:59:28;99940.78;;;19.54;60.48
62800;BME280;48842;51.046;13.796;2022-10-24T12:19:08;99915.94;;;19.56;60.23
62800;BME280;48842;51.046;13.796;2022-10-24T12:21:43;99923.97;;;19.54;58.86
62800;BME280;48842;51.046;13.796;2022-10-24T12:24:31;99949.56;;;19.57;59.04
62800;BME280;48842;51.046;13.796;2022-10-24T12:27:03;99974.41;;;19.56;58.01
62800;BME280;48842;51.046;13.796;2022-10-24T12:29:31;99976.06;;;19.58;57.65
62800;BME280;48842;51.046;13.796;2022-10-24T12:34:42;99973.91;;;19.68;56.71
62800;BME280;48842;51.046;13.796;2022-10-24T12:39:44;99954.19;;;19.74;57.33
62800;BME280;48842;51.046;13.796;2022-10-24T12:48:50;99951.72;;;19.69;58.02
62800;BME280;48842;51.046;13.796;2022-10-24T12:53:19;99948.22;;;19.68;58.40
62800;BME280;48842;51.046;13.796;2022-10-24T12:58:29;99941.22;;;19.66;58.42
62800;BME280;48842;51.046;13.796;2022-10-24T13:00:58;99935.91;;;19.66;58.60
62800;BME280;48842;51.046;13.796;2022-10-24T13:06:20;99934.16;;;19.65;58.75
62800;BME280;48842;51.046;13.796;2022-10-24T13:12:08;99933.31;;;19.64;58.09
62800;BME280;48842;51.046;13.796;2022-10-24T13:17:33;99928.91;;;19.63;58.00
62800;BME280;48842;51.046;13.796;2022-10-24T13:20:05;99924.50;;;19.62;57.95
62800;BME280;48842;51.046;13.796;2022-10-24T13:22:39;99921.84;;;19.62;57.91
62800;BME280;48842;51.046;13.796;2022-10-24T13:25:40;99919.25;;;19.61;56.06
62800;BME280;48842;51.046;13.796;2022-10-24T13:30:46;99923.59;;;19.63;56.88
62800;BME280;48842;51.046;13.796;2022-10-24T13:41:13;99959.81;;;19.66;57.44
62800;BME280;48842;51.046;13.796;2022-10-24T13:43:46;99955.34;;;19.66;56.83
62800;BME280;48842;51.046;13.796;2022-10-24T13:46:24;99968.66;;;19.66;56.07
62800;BME280;48842;51.046;13.796;2022-10-24T13:48:53;99965.06;;;19.67;56.24
62800;BME280;48842;51.046;13.796;2022-10-24T13:51:22;99963.25;;;19.68;56.00
62800;BME280;48842;51.046;13.796;2022-10-24T13:53:51;99964.16;;;19.68;55.57
62800;BME280;48842;51.046;13.796;2022-10-24T13:56:18;99964.16;;;19.68;55.45
62800;BME280;48842;51.046;13.796;2022-10-24T13:58:44;99972.13;;;19.68;55.51
62800;BME280;48842;51.046;13.796;2022-10-24T14:01:21;99974.78;;;19.68;55.22
62800;BME280;48842;51.046;13.796;2022-10-24T14:03:49;99965.88;;;19.69;54.73
62800;BME280;48842;51.046;13.796;2022-10-24T14:06:22;99966.91;;;19.65;54.75
62800;BME280;48842;51.046;13.796;2022-10-24T14:08:49;99960.69;;;19.66;54.62
62800;BME280;48842;51.046;13.796;2022-10-24T14:11:21;99962.53;;;19.64;54.79
62800;BME280;48842;51.046;13.796;2022-10-24T14:13:50;99966.19;;;19.62;54.80
62800;BME280;48842;51.046;13.796;2022-10-24T14:16:26;99963.66;;;19.59;54.54
62800;BME280;48842;51.046;13.796;2022-10-24T14:19:09;99965.50;;;19.57;54.82
62800;BME280;48842;51.046;13.796;2022-10-24T14:21:42;99963.78;;;19.56;55.28
62800;BME280;48842;51.046;13.796;2022-10-24T14:24:18;99963.84;;;19.54;55.82
62800;BME280;48842;51.046;13.796;2022-10-24T14:26:45;99962.09;;;19.53;56.39
62800;BME280;48842;51.046;13.796;2022-10-24T14:29:23;99973.75;;;19.49;57.94
62800;BME280;48842;51.046;13.796;2022-10-24T14:31:58;99962.41;;;19.45;58.43
62800;BME280;48842;51.046;13.796;2022-10-24T14:34:24;99965.25;;;19.41;58.50